Time;durP1;ratioP1;P1;durP2;ratioP2;P2;SDS_P1;SDS_P2;PMS_P1;PMS_P2;Temp;Humidity;BMP_temperature;BMP_pressure;BME280_temperature;BME280_humidity;BME280_pressure;Samples;Min_cycle;Max_cycle;Signal;HPM_P1;HPM_P2
2022/03/12 00:00:10;;;;;;;5.13;4.25;;;12.40;99.90;;;;;;5076454;28;20198;-79
2022/03/12 00:02:36;;;;;;;4.28;3.88;;;12.40;99.90;;;;;;5073288;28;20216;-78
2022/03/12 00:05:08;;;;;;;4.68;4.28;;;12.40;99.90;;;;;;5055954;28;20581;-77
2022/03/12 00:07:39;;;;;;;9.82;4.63;;;12.50;99.90;;;;;;5073117;28;20304;-77
2022/03/12 00:10:05;;;;;;;5.78;4.20;;;12.40;99.90;;;;;;5073441;28;20174;-78
2022/03/12 00:12:32;;;;;;;4.70;4.18;;;12.30;99.90;;;;;;5073251;28;20635;-77
2022/03/12 00:14:58;;;;;;;4.95;4.40;;;12.30;99.90;;;;;;5073412;28;20163;-78
2022/03/12 00:17:24;;;;;;;4.88;4.47;;;12.20;99.90;;;;;;5073279;28;20191;-76
2022/03/12 00:19:50;;;;;;;4.93;4.43;;;12.20;99.90;;;;;;5073066;28;20221;-78
2022/03/12 00:22:16;;;;;;;5.22;4.05;;;12.20;99.90;;;;;;5073499;28;20615;-77
2022/03/12 00:24:42;;;;;;;4.55;4.15;;;12.20;99.90;;;;;;5073098;28;20198;-78
2022/03/12 00:27:09;;;;;;;4.38;3.97;;;12.10;99.90;;;;;;5072448;28;20585;-78
2022/03/12 00:29:35;;;;;;;4.65;3.58;;;12.00;99.90;;;;;;5073194;28;20649;-78
2022/03/12 00:32:03;;;;;;;6.43;3.95;;;12.00;99.90;;;;;;5072364;28;20166;-78
2022/03/12 00:34:30;;;;;;;4.25;3.85;;;12.10;99.90;;;;;;5073239;28;20171;-78
2022/03/12 00:36:57;;;;;;;3.92;3.63;;;12.10;99.90;;;;;;5073460;28;20232;-78
2022/03/12 00:39:22;;;;;;;7.72;3.67;;;12.00;99.90;;;;;;5072733;28;20233;-78
2022/03/12 00:41:48;;;;;;;3.47;3.17;;;12.10;99.90;;;;;;5072610;28;20171;-79
2022/03/12 00:44:18;;;;;;;4.38;3.97;;;12.10;99.90;;;;;;5072147;28;20158;-78
2022/03/12 00:46:45;;;;;;;3.97;3.55;;;12.00;99.90;;;;;;5072471;28;20186;-78
2022/03/12 00:49:10;;;;;;;4.13;3.08;;;11.80;99.90;;;;;;5072725;28;20627;-78
2022/03/12 00:51:38;;;;;;;4.25;3.40;;;11.80;99.90;;;;;;5057242;28;20265;-77
2022/03/12 00:54:04;;;;;;;4.50;3.45;;;11.70;99.90;;;;;;5055481;28;20173;-79
2022/03/12 00:56:30;;;;;;;3.53;3.15;;;11.60;99.90;;;;;;5072833;28;20262;-78
2022/03/12 00:58:57;;;;;;;3.67;3.38;;;11.70;99.90;;;;;;5073004;28;20789;-78
2022/03/12 01:01:25;;;;;;;4.05;3.25;;;11.70;99.90;;;;;;5073624;28;20169;-79
2022/03/12 01:03:51;;;;;;;3.38;3.08;;;11.70;99.90;;;;;;5073079;28;20175;-80
2022/03/12 01:06:18;;;;;;;3.97;3.60;;;11.80;99.90;;;;;;5076801;28;20244;-79
2022/03/12 01:08:45;;;;;;;3.90;3.53;;;11.60;99.90;;;;;;5074224;28;20162;-79
2022/03/12 01:11:12;;;;;;;3.47;3.00;;;11.50;99.90;;;;;;5075874;28;20175;-78
2022/03/12 01:13:38;;;;;;;7.05;3.42;;;11.50;99.90;;;;;;5076335;28;20166;-79
2022/03/12 01:16:05;;;;;;;3.20;2.75;;;11.50;99.90;;;;;;5060950;28;20187;-79
2022/03/12 01:18:31;;;;;;;3.10;2.60;;;11.50;99.90;;;;;;5077576;28;20182;-78
2022/03/12 01:21:07;;;;;;;3.28;2.97;;;11.60;99.90;;;;;;5078364;28;20167;-79
2022/03/12 01:23:32;;;;;;;2.50;2.30;;;11.50;99.90;;;;;;5078244;28;20162;-79
2022/03/12 01:25:59;;;;;;;3.28;2.78;;;11.50;99.90;;;;;;5076768;28;20192;-78
2022/03/12 01:28:25;;;;;;;4.15;3.40;;;11.60;99.90;;;;;;5076761;28;20281;-78
2022/03/12 01:30:51;;;;;;;2.88;2.50;;;11.80;99.90;;;;;;5076849;28;20199;-84
2022/03/12 01:33:18;;;;;;;8.73;2.70;;;11.80;99.90;;;;;;5078671;28;20181;-78
2022/03/12 01:35:43;;;;;;;3.10;2.80;;;11.90;99.90;;;;;;5060226;28;20183;-77
2022/03/12 01:38:09;;;;;;;3.38;2.42;;;11.80;99.90;;;;;;5078948;28;20357;-77
2022/03/12 01:40:35;;;;;;;2.67;2.45;;;11.70;99.90;;;;;;5079451;28;20238;-78
2022/03/12 01:43:01;;;;;;;3.28;2.58;;;11.70;99.90;;;;;;5087047;28;20642;-77
2022/03/12 01:45:28;;;;;;;2.63;2.20;;;11.60;99.90;;;;;;5070333;28;20190;-77
2022/03/12 01:48:02;;;;;;;2.20;2.00;;;11.60;99.90;;;;;;5086986;28;20552;-77
2022/03/12 01:50:33;;;;;;;2.50;2.30;;;11.70;99.90;;;;;;5080816;28;20184;-78
2022/03/12 01:53:02;;;;;;;2.45;2.10;;;11.70;99.90;;;;;;5076575;28;20253;-79
2022/03/12 01:55:30;;;;;;;2.47;2.17;;;11.80;99.90;;;;;;5076578;28;20179;-79
2022/03/12 01:57:58;;;;;;;2.40;1.88;;;11.70;99.90;;;;;;5075369;28;20170;-78
2022/03/12 02:00:26;;;;;;;2.28;1.73;;;11.60;99.90;;;;;;5075915;28;20229;-78
2022/03/12 02:02:54;;;;;;;2.40;2.17;;;11.60;99.90;;;;;;5058455;28;20166;-78
2022/03/12 02:05:25;;;;;;;2.22;2.03;;;11.60;99.90;;;;;;5074922;28;20190;-77
2022/03/12 02:07:51;;;;;;;2.22;1.98;;;11.70;99.90;;;;;;5075835;28;20166;-78
2022/03/12 02:10:18;;;;;;;2.75;1.90;;;11.70;99.90;;;;;;5075297;28;20171;-79
2022/03/12 02:12:44;;;;;;;2.47;2.13;;;11.70;99.90;;;;;;5075288;28;20212;-78
2022/03/12 02:15:09;;;;;;;2.35;2.10;;;11.80;99.90;;;;;;5075035;28;20195;-79
2022/03/12 02:17:40;;;;;;;3.72;1.95;;;11.80;99.90;;;;;;5074668;28;20190;-78
2022/03/12 02:20:06;;;;;;;6.85;2.30;;;11.70;99.90;;;;;;5074354;28;20213;-79
2022/03/12 02:22:32;;;;;;;2.00;1.90;;;11.70;99.90;;;;;;5074737;28;20170;-77
2022/03/12 02:24:58;;;;;;;2.60;2.40;;;11.70;99.90;;;;;;5073728;28;20634;-77
2022/03/12 02:27:25;;;;;;;2.47;2.25;;;11.80;99.90;;;;;;5074966;28;20515;-77
2022/03/12 02:29:53;;;;;;;3.38;2.25;;;11.80;99.90;;;;;;5075039;28;20159;-79
2022/03/12 02:32:18;;;;;;;4.30;2.65;;;11.80;99.90;;;;;;5074842;28;20176;-78
2022/03/12 02:34:47;;;;;;;3.38;2.70;;;11.70;99.90;;;;;;5075274;28;20635;-78
2022/03/12 02:37:29;;;;;;;4.80;2.65;;;11.80;99.90;;;;;;5074996;28;20178;-78
2022/03/12 02:39:56;;;;;;;4.53;2.53;;;11.70;99.90;;;;;;5074723;28;20255;-78
2022/03/12 02:42:23;;;;;;;2.58;2.20;;;11.70;99.90;;;;;;5075001;28;20162;-78
2022/03/12 02:44:52;;;;;;;4.00;2.28;;;11.60;99.90;;;;;;5075227;28;20177;-78
2022/03/12 02:47:21;;;;;;;3.22;2.70;;;11.60;99.90;;;;;;5074735;28;20220;-77
2022/03/12 02:50:07;;;;;;;3.95;2.97;;;11.50;99.90;;;;;;5074585;28;20193;-78
2022/03/12 02:52:41;;;;;;;2.95;2.63;;;11.40;99.90;;;;;;5075015;28;20206;-77
2022/03/12 02:55:12;;;;;;;2.50;2.30;;;11.50;99.90;;;;;;5074130;28;20167;-80
2022/03/12 02:57:39;;;;;;;2.78;2.58;;;11.60;99.90;;;;;;5074934;28;20175;-80
2022/03/12 03:00:08;;;;;;;3.13;2.67;;;11.60;99.90;;;;;;5074275;28;20233;-79
2022/03/12 03:02:41;;;;;;;3.03;2.67;;;11.70;99.90;;;;;;5074249;28;20593;-78
2022/03/12 03:05:21;;;;;;;2.60;2.28;;;11.60;99.90;;;;;;5074212;28;20190;-84
2022/03/12 03:07:54;;;;;;;3.53;2.72;;;11.60;99.90;;;;;;5056108;28;20543;-78
2022/03/12 03:10:35;;;;;;;3.47;2.80;;;11.60;99.90;;;;;;5074684;28;20173;-78
2022/03/12 03:13:29;;;;;;;3.13;2.83;;;11.60;99.90;;;;;;5056099;28;20162;-78
2022/03/12 03:16:02;;;;;;;4.07;2.85;;;11.50;99.90;;;;;;5074433;28;20277;-77
2022/03/12 03:18:34;;;;;;;3.70;3.40;;;11.40;99.90;;;;;;5074279;28;20190;-78
2022/03/12 03:21:01;;;;;;;3.20;2.88;;;11.30;99.90;;;;;;5074228;28;20167;-77
2022/03/12 03:23:29;;;;;;;3.67;2.42;;;11.40;99.90;;;;;;5073919;28;20158;-78
2022/03/12 03:25:57;;;;;;;2.92;2.63;;;11.50;99.90;;;;;;5073614;28;20217;-78
2022/03/12 03:28:23;;;;;;;3.42;2.92;;;11.40;99.90;;;;;;5074103;28;20178;-78
2022/03/12 03:30:48;;;;;;;4.75;2.80;;;11.40;99.90;;;;;;5074318;28;20171;-78
2022/03/12 03:33:22;;;;;;;3.20;2.90;;;11.40;99.90;;;;;;5074048;28;20194;-78
2022/03/12 03:35:49;;;;;;;3.20;2.90;;;11.40;99.90;;;;;;5073326;28;20539;-77
2022/03/12 03:38:16;;;;;;;4.63;2.88;;;11.30;99.90;;;;;;5073998;28;20166;-78
2022/03/12 03:40:43;;;;;;;4.45;2.55;;;11.30;99.90;;;;;;5074206;28;20603;-79
2022/03/12 03:43:13;;;;;;;3.40;3.10;;;11.20;99.90;;;;;;5073832;28;20514;-78
2022/03/12 03:45:39;;;;;;;2.83;2.50;;;11.20;99.90;;;;;;5073760;28;20260;-79
2022/03/12 03:48:09;;;;;;;3.20;2.92;;;11.20;99.90;;;;;;5073599;28;20181;-78
2022/03/12 03:50:35;;;;;;;3.05;2.75;;;11.30;99.90;;;;;;5074299;28;20216;-79
2022/03/12 03:53:03;;;;;;;4.35;3.38;;;11.50;99.90;;;;;;5078192;28;20163;-79
2022/03/12 03:55:32;;;;;;;4.47;2.78;;;11.70;99.90;;;;;;5080302;28;20188;-78
2022/03/12 03:57:59;;;;;;;3.67;3.28;;;11.80;99.90;;;;;;5080040;28;20174;-78
2022/03/12 04:00:26;;;;;;;4.38;3.17;;;11.90;99.90;;;;;;5076629;28;20581;-78
2022/03/12 04:03:01;;;;;;;4.93;3.40;;;12.00;99.90;;;;;;5080234;28;20627;-77
2022/03/12 04:05:27;;;;;;;5.00;3.10;;;12.00;99.90;;;;;;5080450;28;20194;-79
2022/03/12 04:07:53;;;;;;;5.13;2.90;;;11.80;99.90;;;;;;5076020;28;20205;-78
2022/03/12 04:10:18;;;;;;;3.17;2.88;;;11.60;99.90;;;;;;5074156;28;20151;-79
2022/03/12 04:12:44;;;;;;;5.07;2.60;;;11.60;99.90;;;;;;5075867;28;20177;-79
2022/03/12 04:15:10;;;;;;;4.57;2.80;;;11.60;99.90;;;;;;5072892;28;20246;-79
2022/03/12 04:17:35;;;;;;;5.07;3.08;;;11.70;99.90;;;;;;5073714;28;20208;-78
2022/03/12 04:20:01;;;;;;;3.63;3.22;;;11.70;99.90;;;;;;5078424;28;20755;-78
2022/03/12 04:22:27;;;;;;;5.20;3.22;;;11.90;99.90;;;;;;5077498;28;20183;-79
2022/03/12 04:24:54;;;;;;;2.95;2.63;;;11.80;99.90;;;;;;5072255;28;20171;-78
2022/03/12 04:27:22;;;;;;;5.88;2.22;;;11.80;99.90;;;;;;5072830;28;20171;-79
2022/03/12 04:29:47;;;;;;;4.88;3.10;;;11.70;99.90;;;;;;5072317;28;20178;-79
2022/03/12 04:32:13;;;;;;;6.30;2.42;;;11.60;99.90;;;;;;5072095;28;20154;-79
2022/03/12 04:34:39;;;;;;;2.30;2.08;;;11.60;99.90;;;;;;5072675;28;20167;-79
2022/03/12 04:37:05;;;;;;;3.85;2.20;;;11.50;99.90;;;;;;5072757;28;20182;-78
2022/03/12 04:39:33;;;;;;;3.47;2.30;;;11.60;99.90;;;;;;5054038;28;20617;-82
2022/03/12 04:41:59;;;;;;;2.47;1.90;;;11.40;99.90;;;;;;5071894;28;20158;-78
2022/03/12 04:44:24;;;;;;;6.32;2.67;;;11.50;99.90;;;;;;5072425;28;20173;-78
2022/03/12 04:46:50;;;;;;;3.60;2.80;;;11.60;99.90;;;;;;5072511;28;20229;-79
2022/03/12 04:49:16;;;;;;;7.75;2.50;;;11.40;99.90;;;;;;5075774;28;20528;-79
2022/03/12 04:51:42;;;;;;;4.13;2.78;;;11.40;99.90;;;;;;5076251;28;20221;-78
2022/03/12 04:54:08;;;;;;;7.68;2.92;;;11.30;99.90;;;;;;5076362;28;20270;-79
2022/03/12 04:56:34;;;;;;;5.15;2.78;;;11.20;99.90;;;;;;5076148;28;20222;-79
2022/03/12 04:59:00;;;;;;;6.78;3.08;;;11.10;99.90;;;;;;5076470;28;20226;-78
2022/03/12 05:01:25;;;;;;;3.70;2.35;;;11.20;99.90;;;;;;5076166;28;20640;-78
2022/03/12 05:03:52;;;;;;;4.75;2.45;;;11.00;99.90;;;;;;5076393;28;20185;-82
2022/03/12 05:06:18;;;;;;;7.57;2.58;;;10.90;99.90;;;;;;5076181;28;20558;-78
2022/03/12 05:08:44;;;;;;;5.30;2.47;;;10.90;99.90;;;;;;5076245;28;20191;-78
2022/03/12 05:11:10;;;;;;;10.27;2.95;;;10.80;99.90;;;;;;5076261;28;20161;-78
2022/03/12 05:13:35;;;;;;;3.08;2.03;;;10.90;99.90;;;;;;5076139;28;20167;-78
2022/03/12 05:16:06;;;;;;;3.00;2.67;;;11.00;99.90;;;;;;5075794;28;20186;-77
2022/03/12 05:18:40;;;;;;;10.43;2.95;;;10.90;99.90;;;;;;5075722;28;20269;-78
2022/03/12 05:21:06;;;;;;;3.30;2.30;;;11.00;99.90;;;;;;5075704;28;20178;-77
2022/03/12 05:23:32;;;;;;;4.65;2.40;;;10.80;99.90;;;;;;5057796;28;20166;-78
2022/03/12 05:25:58;;;;;;;11.90;2.85;;;10.90;99.90;;;;;;5057914;28;20308;-77
2022/03/12 05:28:32;;;;;;;4.22;2.85;;;11.00;99.90;;;;;;5075599;28;20161;-77
2022/03/12 05:30:59;;;;;;;4.72;2.50;;;11.00;99.90;;;;;;5057815;28;20178;-78
2022/03/12 05:33:26;;;;;;;3.97;2.25;;;11.00;99.90;;;;;;5075310;28;20163;-78
2022/03/12 05:35:54;;;;;;;5.22;2.78;;;10.90;99.90;;;;;;5075779;28;20182;-87
2022/03/12 05:38:25;;;;;;;3.28;2.47;;;10.90;99.90;;;;;;5075409;28;20169;-78
2022/03/12 05:40:51;;;;;;;4.32;2.22;;;10.70;99.90;;;;;;5076023;28;20175;-78
2022/03/12 05:43:17;;;;;;;6.43;2.65;;;10.60;99.90;;;;;;5075711;28;20166;-82
2022/03/12 05:45:51;;;;;;;5.18;2.15;;;10.70;99.90;;;;;;5075399;28;20290;-78
2022/03/12 05:48:17;;;;;;;6.80;2.78;;;10.70;99.90;;;;;;5075291;28;20250;-78
2022/03/12 05:50:45;;;;;;;3.33;2.60;;;10.80;99.90;;;;;;5075370;28;20232;-78
2022/03/12 05:53:14;;;;;;;8.38;2.83;;;10.80;99.90;;;;;;5081359;28;20159;-78
2022/03/12 05:55:40;;;;;;;4.00;2.55;;;10.60;99.90;;;;;;5078739;28;20195;-79
2022/03/12 05:58:07;;;;;;;5.05;2.42;;;10.50;99.90;;;;;;5079315;28;20509;-78
2022/03/12 06:00:34;;;;;;;6.40;2.85;;;10.50;99.90;;;;;;5077877;28;20198;-78
2022/03/12 06:03:01;;;;;;;7.57;2.45;;;10.50;99.90;;;;;;5085574;28;20188;-77
2022/03/12 06:05:27;;;;;;;3.80;2.13;;;10.60;99.90;;;;;;5069053;28;20186;-77
2022/03/12 06:07:54;;;;;;;5.97;2.33;;;10.50;99.90;;;;;;5087968;28;20178;-76
2022/03/12 06:10:25;;;;;;;5.57;2.38;;;10.60;99.90;;;;;;5086490;28;20194;-77
2022/03/12 06:12:53;;;;;;;6.35;2.30;;;10.50;99.90;;;;;;5065065;28;20236;-78
2022/03/12 06:15:21;;;;;;;3.95;2.40;;;10.50;99.90;;;;;;5079479;28;20210;-79
2022/03/12 06:17:49;;;;;;;3.63;2.10;;;10.30;99.90;;;;;;5079290;28;20182;-84
2022/03/12 06:20:17;;;;;;;5.53;2.05;;;10.40;99.90;;;;;;5060453;28;20205;-78
2022/03/12 06:22:44;;;;;;;3.55;2.40;;;10.50;99.90;;;;;;5077591;28;20163;-78
2022/03/12 06:25:12;;;;;;;4.60;2.22;;;10.50;99.90;;;;;;5077678;28;20163;-78
2022/03/12 06:27:42;;;;;;;5.43;2.70;;;10.50;99.90;;;;;;5078258;28;20186;-77
2022/03/12 06:30:10;;;;;;;2.92;1.98;;;10.50;99.90;;;;;;5060273;28;20178;-78
2022/03/12 06:32:42;;;;;;;8.73;2.60;;;10.60;99.90;;;;;;5081340;28;20159;-82
2022/03/12 06:35:09;;;;;;;7.32;2.40;;;10.50;99.90;;;;;;5081764;28;20230;-81
2022/03/12 06:37:34;;;;;;;5.20;2.22;;;10.50;99.90;;;;;;5047506;28;20178;-80
2022/03/12 06:40:00;;;;;;;9.27;2.40;;;10.60;99.90;;;;;;5079438;28;20622;-78
2022/03/12 06:42:32;;;;;;;3.10;2.70;;;10.50;99.90;;;;;;5081260;28;20170;-78
2022/03/12 06:44:57;;;;;;;2.75;2.30;;;10.60;99.90;;;;;;5080644;28;20186;-78
2022/03/12 06:47:29;;;;;;;3.60;2.03;;;10.80;99.90;;;;;;5079774;28;20185;-80
2022/03/12 06:49:56;;;;;;;2.78;2.00;;;10.70;99.90;;;;;;5078649;28;20163;-80
2022/03/12 06:52:23;;;;;;;6.28;2.28;;;10.70;99.90;;;;;;5081023;28;20181;-78
2022/03/12 06:54:51;;;;;;;2.55;2.30;;;10.70;99.90;;;;;;5081855;28;20220;-81
2022/03/12 06:57:18;;;;;;;5.30;2.20;;;10.70;99.90;;;;;;5080193;28;20197;-78
2022/03/12 06:59:43;;;;;;;2.78;2.30;;;10.60;99.90;;;;;;5081842;28;20670;-77
2022/03/12 07:02:09;;;;;;;4.43;2.40;;;10.70;99.90;;;;;;5091265;28;20169;-78
2022/03/12 07:04:34;;;;;;;3.40;2.47;;;10.80;99.90;;;;;;5085007;28;20655;-79
2022/03/12 07:07:01;;;;;;;5.60;2.45;;;10.90;99.90;;;;;;5073350;28;20179;-78
2022/03/12 07:09:27;;;;;;;9.88;2.83;;;10.90;99.90;;;;;;5073598;28;20244;-77
2022/03/12 07:11:58;;;;;;;12.25;2.45;;;10.90;99.90;;;;;;5073039;28;20202;-81
2022/03/12 07:14:24;;;;;;;5.85;2.15;;;11.10;99.90;;;;;;5073484;28;20523;-78
2022/03/12 07:16:50;;;;;;;2.40;2.20;;;11.30;99.90;;;;;;5072943;28;20206;-84
2022/03/12 07:19:15;;;;;;;7.97;3.10;;;11.20;99.90;;;;;;5072858;28;20245;-79
2022/03/12 07:21:41;;;;;;;7.88;2.55;;;11.20;99.90;;;;;;5073177;28;20198;-78
2022/03/12 07:24:07;;;;;;;2.50;2.30;;;11.50;99.90;;;;;;5073177;28;20167;-79
2022/03/12 07:26:32;;;;;;;4.80;2.35;;;11.30;99.90;;;;;;5073115;28;20210;-78
2022/03/12 07:28:59;;;;;;;4.22;2.00;;;11.30;99.90;;;;;;5073313;28;20171;-81
2022/03/12 07:31:25;;;;;;;4.03;1.90;;;11.40;99.90;;;;;;5073011;28;20244;-79
2022/03/12 07:33:51;;;;;;;9.02;2.42;;;11.60;99.90;;;;;;5073090;28;20212;-87
2022/03/12 07:36:17;;;;;;;5.75;2.22;;;11.70;99.90;;;;;;5073515;28;20197;-85
2022/03/12 07:38:43;;;;;;;7.22;2.47;;;11.80;99.90;;;;;;5073611;28;20170;-77
2022/03/12 07:41:09;;;;;;;6.40;2.60;;;11.70;99.90;;;;;;5074789;28;20178;-78
2022/03/12 07:43:35;;;;;;;9.10;2.33;;;11.70;99.90;;;;;;5073055;28;20163;-79
2022/03/12 07:46:01;;;;;;;7.88;2.38;;;11.60;99.90;;;;;;5074932;28;20182;-79
2022/03/12 07:48:27;;;;;;;4.57;2.90;;;11.60;99.90;;;;;;5061130;28;20171;-79
2022/03/12 07:50:53;;;;;;;3.38;2.50;;;11.60;99.90;;;;;;5072823;28;20537;-79
2022/03/12 07:53:19;;;;;;;7.18;2.13;;;11.80;99.90;;;;;;5073789;28;20174;-89
2022/03/12 07:55:46;;;;;;;6.50;2.28;;;11.70;99.90;;;;;;5073461;28;20194;-79
2022/03/12 07:58:11;;;;;;;2.88;2.05;;;11.60;99.90;;;;;;5073069;28;20189;-79
2022/03/12 08:00:37;;;;;;;3.53;2.08;;;11.70;99.90;;;;;;5072528;28;20233;-82
2022/03/12 08:03:03;;;;;;;2.35;2.00;;;11.80;99.90;;;;;;5072768;28;20258;-78
2022/03/12 08:05:28;;;;;;;4.95;2.22;;;11.80;99.90;;;;;;5072741;28;20194;-87
2022/03/12 08:07:54;;;;;;;8.90;2.13;;;11.70;99.90;;;;;;5072829;28;20619;-78
2022/03/12 08:10:22;;;;;;;6.55;3.00;;;11.70;99.90;;;;;;5072554;28;20523;-79
2022/03/12 08:12:48;;;;;;;17.10;3.00;;;11.70;99.90;;;;;;5073489;28;20163;-79
2022/03/12 08:15:15;;;;;;;5.82;2.42;;;11.70;99.90;;;;;;5073782;28;20330;-88
2022/03/12 08:17:41;;;;;;;6.07;2.45;;;11.70;99.90;;;;;;5075047;28;20253;-80
2022/03/12 08:20:07;;;;;;;7.50;2.08;;;11.70;99.90;;;;;;5073371;28;20590;-88
2022/03/12 08:22:35;;;;;;;3.35;1.80;;;11.70;99.90;;;;;;5073250;28;20341;-86
2022/03/12 08:25:01;;;;;;;6.47;2.40;;;11.70;99.90;;;;;;5077683;28;20220;-79
2022/03/12 08:27:27;;;;;;;8.57;2.00;;;11.70;99.90;;;;;;5076415;28;20212;-80
2022/03/12 08:29:53;;;;;;;3.05;2.15;;;11.70;99.90;;;;;;5059011;28;20571;-84
2022/03/12 08:32:18;;;;;;;4.45;1.98;;;11.60;99.90;;;;;;5076931;28;20202;-78
2022/03/12 08:34:44;;;;;;;2.95;2.08;;;11.60;99.90;;;;;;5058298;28;20619;-79
2022/03/12 08:37:09;;;;;;;13.27;2.45;;;11.60;99.90;;;;;;5076969;28;20196;-82
2022/03/12 08:39:36;;;;;;;11.18;2.90;;;11.70;99.90;;;;;;5076545;28;20230;-81
2022/03/12 08:42:02;;;;;;;14.52;2.63;;;11.70;99.90;;;;;;5076178;28;20223;-79
2022/03/12 08:44:28;;;;;;;6.47;2.85;;;11.80;99.90;;;;;;5076359;28;20158;-78
2022/03/12 08:46:53;;;;;;;5.78;2.13;;;11.90;99.90;;;;;;5059563;28;20254;-82
2022/03/12 08:49:19;;;;;;;4.93;2.10;;;11.90;99.90;;;;;;5076865;28;20212;-78
2022/03/12 08:51:45;;;;;;;5.88;2.80;;;12.00;99.90;;;;;;5076915;28;20225;-79
2022/03/12 08:54:11;;;;;;;11.32;3.17;;;12.00;99.90;;;;;;5058621;28;20166;-79
2022/03/12 08:56:37;;;;;;;11.38;3.13;;;12.00;99.90;;;;;;5076414;28;20190;-85
2022/03/12 08:59:04;;;;;;;10.05;2.45;;;12.20;99.90;;;;;;5077589;28;20572;-79
2022/03/12 09:01:30;;;;;;;11.75;2.60;;;12.40;99.90;;;;;;5079115;28;20546;-80
2022/03/12 09:03:56;;;;;;;3.67;2.20;;;12.20;99.90;;;;;;5077981;28;20277;-78
2022/03/12 09:06:23;;;;;;;4.88;2.28;;;12.10;99.90;;;;;;5076445;28;20186;-85
2022/03/12 09:08:49;;;;;;;8.75;2.15;;;12.10;99.90;;;;;;5076033;28;20264;-78
2022/03/12 09:11:17;;;;;;;13.68;3.05;;;12.40;99.90;;;;;;5076590;28;20190;-78
2022/03/12 09:13:43;;;;;;;10.73;3.03;;;12.50;99.90;;;;;;5077358;28;20154;-78
2022/03/12 09:16:09;;;;;;;6.70;2.20;;;12.60;99.90;;;;;;5076930;28;20220;-79
2022/03/12 09:18:34;;;;;;;3.25;2.15;;;12.60;99.90;;;;;;5059698;28;20178;-77
2022/03/12 09:21:00;;;;;;;5.28;2.70;;;12.80;99.90;;;;;;5076028;28;20181;-78
2022/03/12 09:23:26;;;;;;;2.92;2.30;;;12.80;99.90;;;;;;5075604;28;20163;-81
2022/03/12 09:25:52;;;;;;;4.13;2.53;;;12.90;99.90;;;;;;5075289;28;20598;-79
2022/03/12 09:28:19;;;;;;;5.28;1.95;;;13.00;99.90;;;;;;5075171;28;20167;-79
2022/03/12 09:30:50;;;;;;;8.07;1.92;;;13.00;99.90;;;;;;5075770;28;20600;-83
2022/03/12 09:33:17;;;;;;;10.10;2.20;;;13.10;99.90;;;;;;5075900;28;20173;-79
2022/03/12 09:35:43;;;;;;;5.05;1.90;;;13.10;99.90;;;;;;5075399;28;20186;-81
2022/03/12 09:38:10;;;;;;;3.35;3.05;;;13.40;99.90;;;;;;5078604;28;20174;-80
2022/03/12 09:40:35;;;;;;;4.18;2.35;;;13.60;99.90;;;;;;5076961;28;20198;-78
2022/03/12 09:43:02;;;;;;;7.50;2.53;;;13.60;99.90;;;;;;5074637;28;20201;-77
2022/03/12 09:45:28;;;;;;;4.68;1.73;;;13.60;99.90;;;;;;5077238;28;20235;-82
2022/03/12 09:47:54;;;;;;;4.35;1.77;;;13.70;99.90;;;;;;5075938;28;20175;-78
2022/03/12 09:50:21;;;;;;;5.72;1.90;;;13.80;99.90;;;;;;5058006;28;20605;-80
2022/03/12 09:52:47;;;;;;;1.95;1.63;;;13.70;99.90;;;;;;5075592;28;20239;-81
2022/03/12 09:55:14;;;;;;;7.75;2.90;;;13.70;99.90;;;;;;5075576;28;20232;-81
2022/03/12 09:57:41;;;;;;;8.52;3.45;;;13.60;99.90;;;;;;5075823;28;20211;-80
2022/03/12 10:00:08;;;;;;;2.78;1.90;;;13.70;99.90;;;;;;5075188;28;20283;-79
2022/03/12 10:02:34;;;;;;;10.65;2.33;;;13.60;99.90;;;;;;5075295;28;20169;-80
2022/03/12 10:04:59;;;;;;;8.38;2.20;;;13.70;99.90;;;;;;5057145;28;20186;-80
2022/03/12 10:07:25;;;;;;;4.80;2.53;;;13.80;99.90;;;;;;5057329;28;20167;-79
2022/03/12 10:09:50;;;;;;;3.05;1.60;;;14.10;99.90;;;;;;5075158;28;20529;-80
2022/03/12 10:12:16;;;;;;;4.57;1.70;;;14.00;99.90;;;;;;5075193;28;20201;-79
2022/03/12 10:14:42;;;;;;;4.65;1.70;;;14.10;99.90;;;;;;5057179;28;20167;-79
2022/03/12 10:17:07;;;;;;;8.93;1.35;;;14.30;99.90;;;;;;5075387;28;20201;-79
2022/03/12 10:19:37;;;;;;;3.50;1.48;;;14.30;99.90;;;;;;5074878;28;20202;-82
2022/03/12 10:22:08;;;;;;;4.38;1.60;;;14.30;99.90;;;;;;5075708;28;20265;-80
2022/03/12 10:24:35;;;;;;;3.70;1.95;;;14.20;99.90;;;;;;5075483;28;20209;-80
2022/03/12 10:27:02;;;;;;;3.53;1.48;;;14.20;99.90;;;;;;5072688;28;20534;-79
2022/03/12 10:29:28;;;;;;;6.72;1.52;;;14.20;99.90;;;;;;5089250;28;20237;-79
2022/03/12 10:31:54;;;;;;;4.18;2.10;;;14.10;99.90;;;;;;5088804;28;20192;-77
2022/03/12 10:34:22;;;;;;;7.50;1.73;;;14.10;99.90;;;;;;5065498;28;20174;-80
2022/03/12 10:36:54;;;;;;;9.75;1.77;;;14.30;99.90;;;;;;5074668;28;20209;-79
2022/03/12 10:39:34;;;;;;;5.32;1.60;;;14.50;99.90;;;;;;5074632;28;20218;-79
2022/03/12 10:42:07;;;;;;;4.13;1.65;;;14.80;99.90;;;;;;5074302;28;20170;-80
2022/03/12 10:44:40;;;;;;;11.75;1.83;;;14.80;99.90;;;;;;5074350;28;20186;-79
2022/03/12 10:47:23;;;;;;;12.00;1.48;;;14.80;99.90;;;;;;5075281;28;20250;-79
2022/03/12 10:50:04;;;;;;;6.28;1.77;;;14.70;99.90;;;;;;5073674;28;20169;-79
2022/03/12 10:52:32;;;;;;;6.35;2.08;;;15.00;99.90;;;;;;5073739;28;20261;-79
2022/03/12 10:54:58;;;;;;;3.70;1.85;;;15.00;99.90;;;;;;5056067;28;20167;-79
2022/03/12 10:57:24;;;;;;;6.35;1.98;;;15.10;99.90;;;;;;5073903;28;20170;-78
2022/03/12 10:59:54;;;;;;;8.45;2.22;;;15.20;99.90;;;;;;5073519;28;20209;-79
2022/03/12 11:02:20;;;;;;;2.55;1.40;;;15.20;99.90;;;;;;5073723;28;20167;-79
2022/03/12 11:04:45;;;;;;;7.55;1.83;;;15.10;99.90;;;;;;5073815;28;20211;-80
2022/03/12 11:07:30;;;;;;;2.08;1.50;;;15.20;99.90;;;;;;5073495;28;20204;-79
2022/03/12 11:09:56;;;;;;;9.18;2.20;;;15.00;99.90;;;;;;5073516;28;20163;-79
2022/03/12 11:12:37;;;;;;;4.85;2.25;;;14.90;99.90;;;;;;5073749;28;20250;-79
2022/03/12 11:15:08;;;;;;;7.47;1.63;;;14.80;99.90;;;;;;5073735;28;20185;-80
2022/03/12 11:18:05;;;;;;;6.10;1.58;;;14.90;99.90;;;;;;5072603;28;20182;-84
2022/03/12 11:20:35;;;;;;;9.35;1.67;;;15.00;99.90;;;;;;5054535;28;20253;-80
2022/03/12 11:23:09;;;;;;;7.68;1.85;;;15.20;99.90;;;;;;5055449;28;20174;-84
2022/03/12 11:25:49;;;;;;;6.93;1.63;;;15.30;99.90;;;;;;5073658;28;20190;-80
2022/03/12 11:28:19;;;;;;;4.68;1.90;;;15.30;99.90;;;;;;5073444;28;20245;-81
2022/03/12 11:30:45;;;;;;;5.00;1.60;;;15.40;99.90;;;;;;5073080;28;20241;-80
2022/03/12 11:33:12;;;;;;;5.05;1.73;;;15.30;99.90;;;;;;5073471;28;20269;-79
2022/03/12 11:35:39;;;;;;;3.40;1.45;;;15.30;99.90;;;;;;5073160;28;20285;-81
2022/03/12 11:38:15;;;;;;;3.55;1.50;;;15.30;99.90;;;;;;5073269;28;20181;-80
2022/03/12 11:41:03;;;;;;;7.47;1.67;;;15.20;99.90;;;;;;5072558;28;20210;-79
2022/03/12 11:43:31;;;;;;;4.97;1.67;;;15.10;99.90;;;;;;5072926;28;20167;-81
2022/03/12 11:46:03;;;;;;;4.82;1.13;;;15.20;99.90;;;;;;5072734;28;20183;-79
2022/03/12 11:48:30;;;;;;;3.58;1.40;;;15.20;99.90;;;;;;5073130;28;20170;-80
2022/03/12 11:50:56;;;;;;;6.25;2.08;;;15.20;99.90;;;;;;5072945;28;20165;-79
2022/03/12 11:53:22;;;;;;;5.40;2.00;;;15.40;99.90;;;;;;5072799;28;20163;-80
2022/03/12 11:55:50;;;;;;;7.30;2.22;;;15.50;99.90;;;;;;5072861;28;20605;-80
2022/03/12 11:58:17;;;;;;;3.78;1.48;;;15.40;99.90;;;;;;5072756;28;20181;-80
2022/03/12 12:00:45;;;;;;;5.97;1.77;;;15.40;99.90;;;;;;5072833;28;20202;-79
2022/03/12 12:03:16;;;;;;;3.72;1.58;;;15.50;99.90;;;;;;5074276;28;20257;-83
2022/03/12 12:05:47;;;;;;;8.68;1.73;;;15.60;99.90;;;;;;5054679;28;20182;-78
2022/03/12 12:08:14;;;;;;;8.05;1.73;;;15.60;99.90;;;;;;5074376;28;20249;-79
2022/03/12 12:11:02;;;;;;;4.38;1.23;;;15.50;99.90;;;;;;5073804;28;21144;-79
2022/03/12 12:13:29;;;;;;;8.95;1.65;;;15.30;99.90;;;;;;5073061;28;20166;-79
2022/03/12 12:15:56;;;;;;;10.23;1.73;;;15.30;99.90;;;;;;5075801;28;20194;-79
2022/03/12 12:18:22;;;;;;;12.27;2.10;;;15.40;99.90;;;;;;5069898;28;20242;-78
2022/03/12 12:20:48;;;;;;;11.73;2.67;;;15.40;99.90;;;;;;5080451;28;20285;-79
2022/03/12 12:23:19;;;;;;;6.97;3.80;;;15.60;99.90;;;;;;5038891;28;20679;-79
2022/03/12 12:25:46;;;;;;;3.75;1.70;;;15.70;99.90;;;;;;5073930;28;20186;-81
2022/03/12 12:28:18;;;;;;;8.00;1.50;;;15.60;99.90;;;;;;5073789;28;20185;-80
2022/03/12 12:30:46;;;;;;;6.22;1.73;;;15.60;99.90;;;;;;5055703;28;20261;-79
2022/03/12 12:33:20;;;;;;;3.45;1.30;;;15.70;99.90;;;;;;5073714;28;20689;-79
2022/03/12 12:36:08;;;;;;;5.63;2.05;;;15.70;99.90;;;;;;5073115;28;20186;-79
2022/03/12 12:38:34;;;;;;;8.13;1.48;;;15.70;99.90;;;;;;5080106;28;20253;-80
2022/03/12 12:41:03;;;;;;;5.30;1.42;;;15.50;99.90;;;;;;5078436;28;20651;-79
2022/03/12 12:43:34;;;;;;;5.10;2.35;;;15.60;99.90;;;;;;5078556;28;20162;-84
2022/03/12 12:46:09;;;;;;;10.63;2.10;;;15.70;99.90;;;;;;5078956;28;20225;-82
2022/03/12 12:48:45;;;;;;;4.35;1.52;;;15.80;99.90;;;;;;5077633;28;20174;-79